Time;durP1;ratioP1;P1;durP2;ratioP2;P2;SDS_P1;SDS_P2;PMS_P1;PMS_P2;Temp;Humidity;BMP_temperature;BMP_pressure;BME280_temperature;BME280_humidity;BME280_pressure;Samples;Min_cycle;Max_cycle;Signal;HPM_P1;HPM_P2
2023/07/23 06:31:56;;;;;;;55.78;50.10;;;;;;;19.61;58.23;96353.69;2091816;27;20571;-56
2023/07/23 06:32:57;;;;;;;18.92;13.15;;;;;;;19.70;58.21;96355.53;2084785;28;20229;-57
2023/07/23 06:33:59;;;;;;;51.25;45.90;;;;;;;19.90;57.92;96355.69;2074283;28;20792;-57
2023/07/23 06:35:00;;;;;;;33.75;21.92;;;;;;;20.02;57.54;96359.06;2073084;28;20219;-57
2023/07/23 06:36:06;;;;;;;86.78;78.60;;;;;;;20.18;57.55;96363.88;2072600;28;20202;-57
2023/07/23 06:37:07;;;;;;;69.90;63.30;;;;;;;20.31;56.76;96353.84;2073805;28;20193;-59
2023/07/23 06:38:09;;;;;;;107.20;71.88;;;;;;;20.32;56.57;96352.03;2069501;28;20756;-60
2023/07/23 06:39:10;;;;;;;74.30;63.92;;;;;;;20.32;56.32;96339.59;2062602;28;20198;-60
2023/07/23 06:40:12;;;;;;;50.22;41.72;;;;;;;20.68;56.43;96358.50;2065159;28;20240;-59
2023/07/23 06:41:13;;;;;;;68.45;62.03;;;;;;;20.73;56.20;96358.13;2065439;28;20244;-60
2023/07/23 06:42:17;;;;;;;339.80;307.67;;;;;;;20.78;56.17;96358.53;2066514;28;20313;-60
2023/07/23 06:43:21;;;;;;;285.17;260.10;;;;;;;20.64;56.18;96359.75;2065787;28;20313;-59
2023/07/23 06:44:23;;;;;;;248.18;230.13;;;;;;;20.88;56.31;96364.66;2062680;28;20206;-59
2023/07/23 06:45:24;;;;;;;542.75;496.63;;;;;;;20.75;56.25;96360.63;2066412;28;20190;-60
2023/07/23 06:46:26;;;;;;;813.85;743.08;;;;;;;20.80;56.06;96361.91;2066195;28;20197;-59
2023/07/23 06:47:27;;;;;;;700.53;645.15;;;;;;;20.86;56.51;96355.19;2062521;28;20211;-59
2023/07/23 06:48:29;;;;;;;615.85;568.45;;;;;;;20.88;56.23;96362.03;2062504;28;20226;-59
2023/07/23 06:49:31;;;;;;;1146.63;998.40;;;;;;;20.88;55.75;96355.88;2065990;28;20205;-57
2023/07/23 06:50:32;;;;;;;1181.18;999.90;;;;;;;20.62;55.62;96350.25;2066720;28;20280;-57
2023/07/23 06:51:34;;;;;;;1232.65;999.90;;;;;;;20.65;56.01;96350.81;2065493;28;20214;-57
2023/07/23 06:52:35;;;;;;;1404.07;999.90;;;;;;;20.70;56.13;96351.28;2065598;28;20190;-59
2023/07/23 06:53:37;;;;;;;1571.30;999.90;;;;;;;20.80;55.95;96353.94;2066097;28;20232;-60
2023/07/23 06:54:42;;;;;;;1512.97;999.90;;;;;;;20.94;55.26;96354.47;2066263;28;20225;-59
2023/07/23 06:56:07;;;;;;;1437.30;999.90;;;;;;;20.86;55.23;96357.81;2065884;28;20260;-58
2023/07/23 06:57:09;;;;;;;1221.47;999.90;;;;;;;20.88;55.63;96355.88;2066335;28;20289;-58
2023/07/23 06:58:10;;;;;;;1526.75;999.90;;;;;;;20.82;55.60;96353.78;2066252;28;20913;-58
2023/07/23 06:59:12;;;;;;;1609.53;999.90;;;;;;;21.00;55.86;96357.44;2062562;28;20202;-57
2023/07/23 07:00:13;;;;;;;1510.00;999.90;;;;;;;21.18;55.27;96354.06;2062657;28;20813;-57
2023/07/23 07:01:15;;;;;;;1510.22;999.90;;;;;;;21.02;55.37;96354.63;2064842;28;20202;-58
2023/07/23 07:02:16;;;;;;;1571.75;999.90;;;;;;;21.06;55.25;96356.00;2062588;28;20226;-57
2023/07/23 07:03:18;;;;;;;1453.72;999.90;;;;;;;21.08;55.05;96350.56;2062133;28;20963;-58
2023/07/23 07:04:19;;;;;;;1239.80;999.90;;;;;;;21.07;55.67;96348.91;2064262;28;20832;-58
2023/07/23 07:05:21;;;;;;;1558.85;999.90;;;;;;;21.34;55.17;96343.69;2063409;28;20280;-59
2023/07/23 07:06:23;;;;;;;1666.10;999.90;;;;;;;21.35;54.78;96345.34;2064675;28;20286;-58
2023/07/23 07:07:24;;;;;;;1312.32;999.90;;;;;;;21.52;54.70;96357.06;2066798;28;20285;-58
2023/07/23 07:08:27;;;;;;;908.25;790.60;;;;;;;21.64;54.48;96349.78;2064130;28;20230;-59
2023/07/23 07:09:28;;;;;;;1294.72;996.70;;;;;;;21.73;54.82;96352.56;2062275;28;20195;-58
2023/07/23 07:10:30;;;;;;;570.03;450.42;;;;;;;21.67;54.10;96354.81;2065826;28;20511;-58
2023/07/23 07:11:31;;;;;;;547.85;428.38;;;;;;;21.78;54.28;96352.97;2066085;28;20248;-58
2023/07/23 07:12:33;;;;;;;642.85;573.72;;;;;;;21.76;54.18;96345.13;2064569;28;20202;-58
2023/07/23 07:13:34;;;;;;;742.17;665.70;;;;;;;21.96;53.90;96343.22;2063010;28;20237;-58
2023/07/23 07:14:36;;;;;;;809.38;726.30;;;;;;;22.24;53.72;96345.88;2063860;28;20256;-58
2023/07/23 07:15:40;;;;;;;444.42;353.98;;;;;;;22.22;53.44;96347.00;2065148;28;20199;-58
2023/07/23 07:16:41;;;;;;;441.05;326.60;;;;;;;22.07;53.02;96344.00;2063540;28;20207;-58
2023/07/23 07:17:43;;;;;;;410.90;334.13;;;;;;;22.25;52.99;96344.06;2065470;28;20261;-59
2023/07/23 07:18:45;;;;;;;345.48;266.42;;;;;;;22.59;52.46;96346.97;2063865;28;20213;-59
2023/07/23 07:19:46;;;;;;;493.00;430.88;;;;;;;22.39;52.49;96350.75;2067567;28;20209;-58
2023/07/23 07:20:55;;;;;;;946.25;850.63;;;;;;;22.25;52.33;96344.91;2066122;28;20307;-58
2023/07/23 07:21:56;;;;;;;601.17;542.55;;;;;;;22.39;52.80;96342.75;2062419;28;20199;-58
2023/07/23 07:22:57;;;;;;;820.30;751.25;;;;;;;22.56;52.23;96341.09;2064753;28;20292;-58
2023/07/23 07:23:59;;;;;;;955.03;871.22;;;;;;;22.41;52.41;96349.59;2074007;28;20197;-59
2023/07/23 07:25:00;;;;;;;1051.35;954.05;;;;;;;22.09;52.34;96342.03;2070257;28;20244;-59
2023/07/23 07:26:02;;;;;;;983.90;899.67;;;;;;;22.15;52.62;96347.59;2073096;28;20801;-58
2023/07/23 07:27:09;;;;;;;1024.28;926.67;;;;;;;22.04;52.49;96345.13;2071567;28;20194;-58
2023/07/23 07:28:11;;;;;;;1015.00;926.20;;;;;;;22.06;52.91;96348.50;2073890;28;20229;-58
2023/07/23 07:29:12;;;;;;;961.45;880.20;;;;;;;22.08;52.82;96345.69;2074935;28;20201;-58
2023/07/23 07:30:14;;;;;;;1076.53;974.63;;;;;;;22.10;52.78;96341.06;2073495;28;20638;-58
2023/07/23 07:31:15;;;;;;;921.90;845.92;;;;;;;22.10;53.04;96344.56;2073635;28;20236;-58
2023/07/23 07:32:17;;;;;;;849.53;778.53;;;;;;;22.18;53.27;96342.00;2069911;28;20218;-59
2023/07/23 07:33:18;;;;;;;786.53;721.10;;;;;;;22.41;52.67;96343.44;2070028;28;20229;-58
2023/07/23 07:34:20;;;;;;;758.10;694.03;;;;;;;22.42;52.97;96342.44;2073454;28;20198;-58
2023/07/23 07:35:21;;;;;;;1001.60;911.97;;;;;;;22.24;52.56;96339.72;2073028;28;20769;-58
2023/07/23 07:36:23;;;;;;;881.13;805.58;;;;;;;22.27;52.84;96342.94;2074271;28;20830;-58
2023/07/23 07:37:27;;;;;;;883.30;811.15;;;;;;;22.23;52.31;96348.69;2074904;28;20920;-58
2023/07/23 07:38:28;;;;;;;877.00;802.88;;;;;;;22.26;52.78;96337.75;2073123;28;20232;-59
2023/07/23 07:39:30;;;;;;;843.17;775.22;;;;;;;22.20;52.25;96344.50;2072872;28;20250;-58
2023/07/23 07:40:31;;;;;;;892.67;812.70;;;;;;;22.15;52.42;96339.63;2073866;28;20201;-58
2023/07/23 07:41:33;;;;;;;918.78;837.38;;;;;;;21.94;52.76;96337.22;2073331;28;20884;-59
2023/07/23 07:42:34;;;;;;;790.88;718.17;;;;;;;22.06;53.41;96334.38;2071666;28;20194;-58
2023/07/23 07:43:36;;;;;;;731.70;664.80;;;;;;;22.20;53.18;96343.69;2059109;28;20255;-59
2023/07/23 07:44:37;;;;;;;767.47;697.70;;;;;;;22.18;52.75;96339.34;2060096;28;20198;-59
2023/07/23 07:45:39;;;;;;;744.88;671.80;;;;;;;22.11;52.86;96343.56;2060556;28;20206;-59
2023/07/23 07:46:40;;;;;;;905.83;817.65;;;;;;;22.12;53.19;96345.25;2060186;28;20207;-58
2023/07/23 07:47:48;;;;;;;926.08;841.95;;;;;;;22.10;53.46;96331.25;2059004;28;20190;-59
2023/07/23 07:48:49;;;;;;;858.65;776.78;;;;;;;22.11;53.26;96343.56;2060777;28;20226;-61
2023/07/23 07:49:53;;;;;;;829.38;753.80;;;;;;;22.14;53.38;96347.75;2056974;28;20247;-61
2023/07/23 07:51:00;;;;;;;868.65;786.55;;;;;;;22.19;53.18;96353.47;2058679;28;20202;-60
2023/07/23 07:52:03;;;;;;;920.20;827.97;;;;;;;22.13;52.80;96351.38;2060448;28;20210;-60
2023/07/23 07:53:04;;;;;;;886.97;800.47;;;;;;;22.10;53.02;96341.91;2054948;28;20250;-60
2023/07/23 07:54:06;;;;;;;827.92;752.70;;;;;;;22.18;53.50;96339.34;2056182;28;20199;-60
2023/07/23 07:55:08;;;;;;;877.05;794.65;;;;;;;22.24;53.27;96345.06;2059632;28;20206;-60
2023/07/23 07:56:17;;;;;;;928.78;842.15;;;;;;;22.23;52.98;96351.34;2060119;28;20407;-60
2023/07/23 07:57:19;;;;;;;906.72;823.85;;;;;;;22.18;53.53;96351.78;2060095;28;20242;-60
2023/07/23 07:58:27;;;;;;;893.05;810.65;;;;;;;22.10;53.53;96346.38;2062729;28;20309;-60
2023/07/23 07:59:29;;;;;;;936.58;844.67;;;;;;;22.05;52.91;96340.69;2062294;28;20285;-60
2023/07/23 08:00:31;;;;;;;934.05;845.33;;;;;;;22.04;53.57;96345.13;2055977;28;20203;-60
2023/07/23 08:01:33;;;;;;;949.42;858.08;;;;;;;22.16;53.03;96346.63;2058154;28;20199;-60
2023/07/23 08:02:34;;;;;;;1091.32;988.63;;;;;;;22.09;53.02;96350.03;2060628;28;20265;-60
2023/07/23 08:03:36;;;;;;;973.67;884.55;;;;;;;22.17;53.03;96352.78;2061415;28;20260;-60
2023/07/23 08:04:38;;;;;;;964.08;877.55;;;;;;;22.26;53.23;96343.91;2060588;28;20655;-60
2023/07/23 08:05:40;;;;;;;1026.55;917.30;;;;;;;22.16;53.04;96348.47;2056514;28;20218;-60
2023/07/23 08:06:42;;;;;;;1044.38;945.92;;;;;;;22.21;52.76;96350.66;2059779;28;20233;-60
2023/07/23 08:07:45;;;;;;;1109.63;997.55;;;;;;;22.39;52.59;96359.53;2056360;28;20244;-60
2023/07/23 08:08:49;;;;;;;1149.18;999.90;;;;;;;22.47;51.92;96348.16;2060410;28;20249;-60
2023/07/23 08:09:53;;;;;;;991.13;891.85;;;;;;;22.32;52.03;96356.63;2056355;28;20207;-60
2023/07/23 08:10:59;;;;;;;966.42;871.25;;;;;;;22.12;52.85;96345.25;2059630;28;20250;-60
2023/07/23 08:12:01;;;;;;;995.35;900.58;;;;;;;22.11;53.25;96351.53;2060471;28;20190;-60
2023/07/23 08:13:04;;;;;;;983.33;888.58;;;;;;;22.02;53.14;96353.25;2059425;28;20729;-60
2023/07/23 08:14:07;;;;;;;1052.55;959.35;;;;;;;21.90;53.69;96359.75;2058049;28;20214;-61
2023/07/23 08:15:09;;;;;;;977.30;891.30;;;;;;;21.92;53.65;96355.13;2059192;28;20205;-59
2023/07/23 08:16:14;;;;;;;1050.85;958.75;;;;;;;21.88;53.57;96363.53;2060479;28;20199;-59
2023/07/23 08:17:16;;;;;;;1014.70;920.33;;;;;;;21.79;53.60;96352.00;2061708;28;20249;-60
2023/07/23 08:18:18;;;;;;;951.33;871.00;;;;;;;21.72;53.92;96365.00;2056562;28;20258;-60
2023/07/23 08:19:20;;;;;;;917.00;834.25;;;;;;;21.76;53.98;96362.88;2056909;28;20675;-59
2023/07/23 08:20:22;;;;;;;945.28;863.40;;;;;;;21.72;53.73;96348.22;2060613;28;20226;-59
2023/07/23 08:21:24;;;;;;;1014.38;921.85;;;;;;;21.77;53.52;96361.91;2058451;28;20233;-60
2023/07/23 08:22:25;;;;;;;948.65;865.67;;;;;;;21.82;53.42;96363.13;2056503;28;20206;-59
2023/07/23 08:23:27;;;;;;;905.45;830.17;;;;;;;22.01;53.24;96358.75;2056420;28;20227;-59
2023/07/23 08:24:29;;;;;;;812.60;745.28;;;;;;;22.19;53.48;96353.47;2059875;28;20206;-59
2023/07/23 08:25:30;;;;;;;922.65;845.72;;;;;;;22.11;53.13;96350.72;2060067;28;20289;-59
2023/07/23 08:26:33;;;;;;;932.13;852.83;;;;;;;22.19;52.95;96350.81;2061307;28;20290;-59
2023/07/23 08:27:35;;;;;;;878.65;805.00;;;;;;;22.26;53.20;96351.91;2060654;28;20218;-59
2023/07/23 08:28:38;;;;;;;1015.60;920.40;;;;;;;22.34;53.24;96344.00;2059764;28;20226;-59
2023/07/23 08:29:44;;;;;;;1003.33;910.55;;;;;;;22.46;52.57;96349.13;2059707;28;20203;-59
2023/07/23 08:30:50;;;;;;;1076.10;968.65;;;;;;;22.47;52.33;96351.66;2059494;28;20670;-59
2023/07/23 08:31:54;;;;;;;1107.85;914.60;;;;;;;22.34;51.83;96348.50;2058215;28;20757;-59
2023/07/23 08:32:57;;;;;;;826.40;749.22;;;;;;;22.19;52.67;96345.47;2059354;28;20343;-59
2023/07/23 08:34:02;;;;;;;798.75;728.58;;;;;;;22.18;52.70;96342.00;2056707;28;20210;-59
2023/07/23 08:35:04;;;;;;;1021.95;929.13;;;;;;;22.24;52.54;96343.22;2056774;28;20218;-59
2023/07/23 08:36:06;;;;;;;983.72;894.97;;;;;;;22.10;52.52;96333.91;2056570;28;20203;-59
2023/07/23 08:37:08;;;;;;;1000.38;902.53;;;;;;;22.18;52.74;96341.16;2056889;28;20195;-59
2023/07/23 08:38:10;;;;;;;968.33;876.05;;;;;;;22.27;53.07;96347.41;2060056;28;20274;-59
2023/07/23 08:39:12;;;;;;;879.17;792.95;;;;;;;22.10;52.69;96351.69;2060067;28;20198;-59
2023/07/23 08:40:15;;;;;;;965.85;869.30;;;;;;;21.98;52.75;96356.38;2059957;28;20281;-59
2023/07/23 08:41:29;;;;;;;936.85;849.50;;;;;;;21.92;52.84;96354.31;2059075;28;20218;-59
2023/07/23 08:42:53;;;;;;;981.97;889.60;;;;;;;22.17;52.67;96353.63;2058698;28;20203;-59
2023/07/23 08:44:15;;;;;;;852.55;769.13;;;;;;;22.10;52.47;96351.69;2057332;28;20215;-59
2023/07/23 08:45:35;;;;;;;698.33;633.90;;;;;;;22.24;52.37;96353.03;2058073;28;20210;-59
2023/07/23 08:46:44;;;;;;;873.38;785.67;;;;;;;22.33;52.13;96352.97;2058454;28;20206;-59
2023/07/23 08:47:47;;;;;;;870.90;787.97;;;;;;;22.13;52.32;96354.91;2060385;28;20209;-59
2023/07/23 08:49:09;;;;;;;917.42;830.47;;;;;;;22.13;53.18;96354.06;2059009;28;20207;-59
2023/07/23 08:50:12;;;;;;;864.72;787.92;;;;;;;22.18;53.07;96349.97;2060215;28;20210;-59
2023/07/23 08:51:14;;;;;;;879.00;798.97;;;;;;;22.05;53.45;96353.97;2059444;28;20195;-59
2023/07/23 08:52:16;;;;;;;948.97;861.10;;;;;;;21.93;52.78;96356.81;2058979;28;20724;-59
2023/07/23 08:53:18;;;;;;;1003.13;891.42;;;;;;;21.73;53.60;96353.38;2059266;28;20227;-59
2023/07/23 08:54:20;;;;;;;960.22;860.78;;;;;;;21.60;53.88;96364.34;2059333;28;20194;-59
2023/07/23 08:55:22;;;;;;;739.25;667.70;;;;;;;21.74;54.03;96363.03;2057712;28;20203;-59
2023/07/23 08:56:23;;;;;;;660.17;601.08;;;;;;;21.83;53.80;96356.84;2056225;28;21008;-59
2023/07/23 08:57:25;;;;;;;755.33;686.90;;;;;;;21.90;53.61;96359.75;2059612;28;20198;-59
2023/07/23 08:58:26;;;;;;;815.72;743.03;;;;;;;21.87;53.63;96356.56;2058041;28;20293;-59
2023/07/23 08:59:30;;;;;;;693.22;630.83;;;;;;;21.93;53.46;96356.81;2059117;28;20550;-59
2023/07/23 09:00:32;;;;;;;694.22;630.95;;;;;;;22.01;53.78;96359.56;2060272;28;20236;-59
2023/07/23 09:01:37;;;;;;;653.53;594.55;;;;;;;21.96;54.06;96356.50;2059325;28;20194;-59
2023/07/23 09:02:40;;;;;;;1101.20;962.83;;;;;;;21.79;54.04;96366.09;2059977;28;20234;-59
2023/07/23 09:03:42;;;;;;;787.42;713.22;;;;;;;21.73;54.18;96357.88;2059799;28;20693;-59
2023/07/23 09:04:44;;;;;;;774.67;706.45;;;;;;;21.62;54.52;96359.72;2059530;28;20198;-59
2023/07/23 09:05:45;;;;;;;728.90;661.38;;;;;;;21.61;54.19;96358.06;2059804;28;20194;-60
2023/07/23 09:06:47;;;;;;;887.00;795.53;;;;;;;21.64;54.45;96356.94;2056341;28;20203;-60
2023/07/23 09:07:49;;;;;;;708.22;642.33;;;;;;;21.64;54.48;96356.94;2059105;28;20203;-60
2023/07/23 09:08:51;;;;;;;617.90;557.83;;;;;;;21.67;54.45;96349.50;2059305;28;20315;-60
2023/07/23 09:09:53;;;;;;;709.10;640.80;;;;;;;21.73;54.60;96344.59;2059768;28;20317;-60
2023/07/23 09:10:54;;;;;;;664.17;597.92;;;;;;;21.90;54.50;96359.75;2060553;28;20659;-59
2023/07/23 09:11:56;;;;;;;664.97;597.38;;;;;;;21.73;54.49;96357.88;2059850;28;20686;-59
2023/07/23 09:12:57;;;;;;;832.97;757.15;;;;;;;21.58;54.92;96353.00;2059612;28;20318;-59
2023/07/23 09:14:01;;;;;;;777.05;698.20;;;;;;;21.61;54.83;96357.19;2056172;28;20709;-59
2023/07/23 09:15:06;;;;;;;848.20;758.75;;;;;;;21.60;54.72;96355.50;2056908;28;20187;-59
2023/07/23 09:16:07;;;;;;;729.33;658.45;;;;;;;21.57;54.92;96350.50;2058790;28;20195;-59
2023/07/23 09:17:19;;;;;;;658.70;597.47;;;;;;;21.67;54.71;96357.47;2059696;28;20199;-59
2023/07/23 09:18:21;;;;;;;625.08;566.15;;;;;;;21.73;54.36;96357.88;2060245;28;20757;-59
2023/07/23 09:19:24;;;;;;;574.83;519.33;;;;;;;21.74;54.54;96352.41;2061202;28;20217;-59
2023/07/23 09:20:26;;;;;;;738.28;666.65;;;;;;;21.57;54.72;96353.16;2060082;28;20613;-59
2023/07/23 09:21:28;;;;;;;886.92;804.95;;;;;;;21.45;54.41;96347.16;2059574;28;20651;-59
2023/07/23 09:22:31;;;;;;;571.08;515.45;;;;;;;21.63;54.68;96356.06;2059601;28;20551;-59
2023/07/23 09:23:33;;;;;;;638.72;579.20;;;;;;;21.69;54.36;96346.69;2059893;28;20235;-59
2023/07/23 09:24:35;;;;;;;636.13;572.53;;;;;;;21.73;54.25;96350.72;2059432;28;20206;-59
2023/07/23 09:25:37;;;;;;;693.92;624.60;;;;;;;21.84;54.52;96349.72;2059278;28;20286;-59
2023/07/23 09:26:38;;;;;;;689.30;622.67;;;;;;;21.92;53.93;96341.84;2060948;28;20297;-59
2023/07/23 09:27:43;;;;;;;615.58;557.42;;;;;;;21.94;54.31;96345.19;2058713;28;20195;-59
2023/07/23 09:28:44;;;;;;;748.58;674.17;;;;;;;21.96;54.63;96337.91;2057351;28;20219;-59
2023/07/23 09:29:47;;;;;;;847.88;766.35;;;;;;;22.07;53.90;96336.88;2061395;28;20202;-59
2023/07/23 09:30:56;;;;;;;651.78;591.17;;;;;;;22.19;53.90;96340.16;2055893;28;20203;-59
2023/07/23 09:31:58;;;;;;;927.90;844.08;;;;;;;21.97;53.53;96336.91;2057637;28;20198;-59
2023/07/23 09:33:06;;;;;;;662.53;598.85;;;;;;;22.20;53.06;96339.19;2055239;28;20211;-59
2023/07/23 09:34:08;;;;;;;927.60;832.42;;;;;;;22.25;52.89;96341.41;2057471;28;20589;-59
2023/07/23 09:35:09;;;;;;;776.20;709.08;;;;;;;22.24;53.42;96345.88;2060654;28;20229;-59
2023/07/23 09:36:11;;;;;;;885.25;794.63;;;;;;;22.14;53.12;96337.13;2058794;28;20231;-59
2023/07/23 09:37:12;;;;;;;840.80;764.05;;;;;;;22.40;52.75;96345.25;2059714;28;20218;-59
2023/07/23 09:38:14;;;;;;;886.63;805.13;;;;;;;22.38;52.99;96341.09;2059448;28;20226;-59
2023/07/23 09:39:19;;;;;;;844.03;765.78;;;;;;;22.29;53.13;96338.28;2060128;28;20199;-59
2023/07/23 09:40:21;;;;;;;837.72;760.33;;;;;;;22.51;52.50;96349.50;2059977;28;20205;-59
2023/07/23 09:41:23;;;;;;;907.08;817.83;;;;;;;22.43;52.18;96338.81;2060094;28;20198;-59
2023/07/23 09:42:25;;;;;;;897.55;815.28;;;;;;;22.70;52.11;96337.91;2071674;28;20206;-59
2023/07/23 09:43:27;;;;;;;590.13;536.83;;;;;;;22.73;51.47;96339.41;2074571;28;20674;-59
2023/07/23 09:44:28;;;;;;;557.63;503.00;;;;;;;22.98;50.70;96337.81;2059559;28;20207;-59
2023/07/23 09:45:34;;;;;;;721.72;654.83;;;;;;;23.05;51.41;96335.41;2061157;28;20226;-59
2023/07/23 09:46:37;;;;;;;850.78;772.35;;;;;;;23.25;51.47;96334.25;2059840;28;20206;-59
2023/07/23 09:47:39;;;;;;;862.83;781.47;;;;;;;23.39;51.38;96347.97;2059512;28;20222;-59
2023/07/23 09:48:48;;;;;;;563.67;510.08;;;;;;;23.15;51.36;96339.66;2058883;28;20230;-59
2023/07/23 09:49:54;;;;;;;716.03;648.85;;;;;;;23.30;51.11;96334.63;2059471;28;20257;-59
2023/07/23 09:51:00;;;;;;;892.05;807.33;;;;;;;23.23;51.61;96354.03;2058866;28;20191;-59
2023/07/23 09:52:07;;;;;;;803.08;728.22;;;;;;;23.31;51.65;96335.44;2058109;28;20191;-59
2023/07/23 09:53:09;;;;;;;879.88;788.42;;;;;;;23.24;51.50;96348.53;2056696;28;20280;-59
2023/07/23 09:54:11;;;;;;;793.95;719.22;;;;;;;23.05;51.93;96330.91;2057749;28;20210;-59
2023/07/23 09:55:13;;;;;;;685.38;622.55;;;;;;;23.14;51.15;96342.44;2058828;28;20716;-59
2023/07/23 09:56:19;;;;;;;877.17;792.03;;;;;;;23.09;51.55;96334.91;2060137;28;20222;-59
2023/07/23 09:57:23;;;;;;;701.38;630.67;;;;;;;22.92;52.28;96335.75;2059905;28;20224;-59
2023/07/23 09:58:27;;;;;;;942.10;848.28;;;;;;;22.69;52.83;96330.94;2059110;28;20237;-59
2023/07/23 09:59:30;;;;;;;872.85;793.17;;;;;;;22.69;52.69;96322.09;2059784;28;20586;-59
2023/07/23 10:00:33;;;;;;;914.13;830.25;;;;;;;22.63;52.76;96328.88;2058414;28;20249;-59
2023/07/23 10:01:35;;;;;;;862.72;783.25;;;;;;;22.56;52.87;96333.94;2059606;28;20198;-59
2023/07/23 10:02:39;;;;;;;809.33;740.58;;;;;;;22.60;52.89;96330.00;2058918;28;20206;-59
2023/07/23 10:03:43;;;;;;;1484.68;845.63;;;;;;;22.69;52.65;96328.28;2059035;28;20285;-59
2023/07/23 10:04:45;;;;;;;971.17;875.60;;;;;;;23.11;51.82;96340.09;2059584;28;20285;-59
2023/07/23 10:05:47;;;;;;;817.20;743.40;;;;;;;23.11;52.12;96342.78;2059496;28;20794;-59
2023/07/23 10:06:49;;;;;;;870.08;794.97;;;;;;;23.20;51.74;96322.38;2059896;28;20203;-59
2023/07/23 10:07:53;;;;;;;845.38;765.75;;;;;;;23.62;51.37;96330.47;2058824;28;20273;-59
2023/07/23 10:08:56;;;;;;;1509.82;871.38;;;;;;;23.69;50.53;96316.53;2058755;28;20228;-59
2023/07/23 10:09:59;;;;;;;836.88;756.78;;;;;;;23.79;51.00;96327.91;2057002;28;20199;-59
2023/07/23 10:11:00;;;;;;;822.42;747.72;;;;;;;23.65;51.50;96326.66;2058725;28;20592;-59
2023/07/23 10:12:02;;;;;;;820.00;734.85;;;;;;;23.60;51.53;96324.50;2059737;28;20202;-60
2023/07/23 10:13:04;;;;;;;745.45;667.03;;;;;;;23.48;51.22;96321.22;2058609;28;20232;-59
2023/07/23 10:14:05;;;;;;;730.65;653.22;;;;;;;23.65;51.07;96334.66;2060467;28;20199;-59
2023/07/23 10:15:07;;;;;;;602.92;543.40;;;;;;;23.57;50.78;96323.97;2059493;28;20224;-59
2023/07/23 10:16:16;;;;;;;711.92;641.05;;;;;;;23.56;50.78;96323.09;2059507;28;20199;-59
2023/07/23 10:17:18;;;;;;;592.92;532.28;;;;;;;23.80;50.62;96329.56;2059787;28;20206;-59
2023/07/23 10:18:23;;;;;;;554.10;496.85;;;;;;;24.02;49.33;96322.03;2056204;28;20226;-59
2023/07/23 10:19:25;;;;;;;521.63;470.23;;;;;;;24.31;49.70;96329.63;2059234;28;20230;-59
2023/07/23 10:20:29;;;;;;;620.47;561.45;;;;;;;24.10;49.09;96322.09;2059429;28;20206;-60
2023/07/23 10:21:33;;;;;;;585.83;529.20;;;;;;;24.18;49.37;96324.75;2059843;28;20710;-60
2023/07/23 10:22:36;;;;;;;537.20;486.42;;;;;;;24.20;49.57;96313.94;2059409;28;20202;-60
2023/07/23 10:23:41;;;;;;;551.22;496.52;;;;;;;24.50;49.33;96333.03;2060042;28;20226;-60
2023/07/23 10:24:43;;;;;;;519.47;470.42;;;;;;;24.57;49.01;96307.34;2060375;28;20253;-60
2023/07/23 10:25:44;;;;;;;549.60;496.42;;;;;;;24.55;48.38;96307.50;2055880;28;20202;-60
2023/07/23 10:26:47;;;;;;;513.75;465.15;;;;;;;25.03;48.10;96306.91;2055802;28;20206;-60
2023/07/23 10:28:03;;;;;;;515.33;463.58;;;;;;;25.29;47.82;96304.03;2059457;28;21030;-60
2023/07/23 10:29:12;;;;;;;671.60;613.35;;;;;;;25.56;47.57;96310.03;2060684;28;20605;-60
2023/07/23 10:30:18;;;;;;;1520.35;877.75;;;;;;;25.54;46.28;96315.56;2059740;28;20203;-60
2023/07/23 10:31:28;;;;;;;2250.00;999.90;;;;;;;25.24;46.95;96303.72;2055624;28;20296;-60
2023/07/23 10:32:31;;;;;;;393.38;304.00;;;;;;;25.29;47.36;96298.69;2059156;28;20281;-60
2023/07/23 10:33:33;;;;;;;1526.00;886.33;;;;;;;25.04;47.79;96290.72;2059554;28;20711;-60
2023/07/23 10:34:36;;;;;;;659.92;599.13;;;;;;;25.51;47.37;96297.19;2059924;28;20203;-60
2023/07/23 10:35:53;;;;;;;605.10;545.42;;;;;;;25.26;47.09;96294.53;2058756;28;20835;-60
2023/07/23 10:37:18;;;;;;;2250.00;999.90;;;;;;;25.34;46.80;96301.69;2058336;28;20195;-60
2023/07/23 10:38:29;;;;;;;2250.00;999.90;;;;;;;25.29;47.33;96301.38;2067109;28;20721;-60
2023/07/23 10:39:39;;;;;;;2250.00;999.90;;;;;;;25.20;46.99;96289.03;2066425;28;20632;-60
2023/07/23 10:40:44;;;;;;;2250.00;999.90;;;;;;;25.01;47.72;96290.22;2057789;28;20299;-60
2023/07/23 10:41:53;;;;;;;2250.00;999.90;;;;;;;24.85;47.35;96299.91;2058958;28;20190;-60
2023/07/23 10:43:11;;;;;;;2250.00;999.90;;;;;;;24.95;47.50;96294.41;2059489;28;20562;-60
2023/07/23 10:44:24;;;;;;;2250.00;999.90;;;;;;;25.00;46.90;96297.41;2059128;28;20190;-60
2023/07/23 10:45:26;;;;;;;2250.00;999.90;;;;;;;25.00;47.15;96293.88;2061065;28;20201;-60
2023/07/23 10:46:27;;;;;;;2250.00;999.90;;;;;;;25.29;46.81;96284.50;2059697;28;20203;-60
2023/07/23 10:47:32;;;;;;;2250.00;999.90;;;;;;;25.65;46.40;96276.94;2058962;28;20202;-60
2023/07/23 10:48:41;;;;;;;2250.00;999.90;;;;;;;26.02;45.95;96280.81;2058743;28;20280;-61
2023/07/23 10:50:08;;;;;;;2250.00;999.90;;;;;;;26.16;44.76;96281.94;2058671;28;20206;-60
2023/07/23 10:51:14;;;;;;;2250.00;999.90;;;;;;;26.50;44.63;96271.84;2059284;28;20233;-60
2023/07/23 10:52:17;;;;;;;2250.00;999.90;;;;;;;26.55;44.19;96272.16;2059415;28;20280;-60
2023/07/23 10:53:19;;;;;;;2250.00;999.90;;;;;;;26.66;43.91;96260.22;2058602;28;20223;-60
2023/07/23 10:54:21;;;;;;;2250.00;999.90;;;;;;;26.48;43.42;96264.00;2057539;28;20215;-60
2023/07/23 10:55:40;;;;;;;941.90;599.72;;;;;;;26.49;43.01;96281.75;2059645;28;20203;-61
2023/07/23 10:59:35;;;;;;;2250.00;999.90;;;;;;;26.82;41.81;96268.13;2052897;28;20187;-60
2023/07/23 11:00:46;;;;;;;1335.47;692.65;;;;;;;26.60;41.91;96267.13;2058558;28;20241;-60
2023/07/23 11:04:25;;;;;;;2250.00;999.90;;;;;;;26.73;41.66;96274.59;2054920;28;20601;-60
2023/07/23 11:05:38;;;;;;;2250.00;999.90;;;;;;;26.55;41.54;96259.63;2059673;28;20203;-61
2023/07/23 11:07:02;;;;;;;2250.00;999.90;;;;;;;26.45;41.97;96274.22;2060818;28;20360;-61
2023/07/23 11:08:18;;;;;;;2250.00;999.90;;;;;;;26.65;42.01;96279.94;2058242;28;20258;-61
2023/07/23 11:09:35;;;;;;;2250.00;999.90;;;;;;;26.29;42.25;96275.19;2074052;28;20413;-60
2023/07/23 11:10:52;;;;;;;2250.00;999.90;;;;;;;26.63;41.96;96260.56;2070374;28;20204;-60
2023/07/23 11:11:55;;;;;;;2250.00;999.90;;;;;;;26.52;41.56;96284.03;2059717;28;20603;-60
2023/07/23 11:12:57;;;;;;;2250.00;999.90;;;;;;;26.20;42.10;96274.41;2058641;28;20724;-60
2023/07/23 11:13:58;;;;;;;2250.00;999.90;;;;;;;25.99;42.92;96275.81;2058742;28;20828;-60
2023/07/23 11:15:12;;;;;;;2250.00;999.90;;;;;;;25.74;42.72;96267.06;2059626;28;20202;-60
2023/07/23 11:16:15;;;;;;;2250.00;999.90;;;;;;;26.00;42.99;96272.09;2060948;28;20917;-60
2023/07/23 11:17:16;;;;;;;2250.00;999.90;;;;;;;26.52;42.18;96268.00;2060914;28;20857;-60
2023/07/23 11:18:19;;;;;;;2250.00;999.90;;;;;;;26.72;41.90;96251.47;2055709;28;20231;-60
2023/07/23 11:19:24;;;;;;;2250.00;999.90;;;;;;;27.11;41.70;96257.66;2058273;28;20339;-59
2023/07/23 11:20:26;;;;;;;2250.00;999.90;;;;;;;27.30;40.96;96253.63;2060182;28;20202;-60
2023/07/23 11:21:28;;;;;;;2250.00;999.90;;;;;;;27.41;40.96;96255.91;2056955;28;20543;-60
2023/07/23 11:22:30;;;;;;;2250.00;999.90;;;;;;;27.27;41.28;96257.50;2059924;28;20305;-60
2023/07/23 11:23:32;;;;;;;2250.00;999.90;;;;;;;27.05;42.23;96260.06;2059535;28;20594;-60